Black Creek, New York
Current Conditions -  °F | °C
As of 3:15 AM on Friday 24 Oct 2014 (Local Time) from KOLE Reporting Station
Scattered Clouds Scattered Clouds  
Wind Chill: 36°   Ceiling: Unl
Heat Index: 41°   Visibility: 10mi
Dew Point: 41°   Wind: 8mph
Humidity: 100%   Direction: 310°NW
Pressure: 30"   Gusts: NA
Location:  42.28°N, 78.23°W
Report Text: KOLE 240715Z AUTO 31007KT 10SM SCT029 05/05 A3000 RMK AO2
Loading
Personal Weather Stations






























Interactive Weather Map
Tropical Storm Tracking
New forecast layout! Learn more

10-Day Weather Forecast

Advertisements
Track Severe Weather on mobile